Time;durP1;ratioP1;P1;durP2;ratioP2;P2;SDS_P1;SDS_P2;PMS_P1;PMS_P2;Temp;Humidity;BMP_temperature;BMP_pressure;BME280_temperature;BME280_humidity;BME280_pressure;Samples;Min_cycle;Max_cycle;Signal;HPM_P1;HPM_P2
2023/09/04 00:00:25;;;;;;;8.05;7.07;;;;;;;15.47;100.00;102188.88;5008139;28;20586;-60
2023/09/04 00:02:50;;;;;;;9.10;6.72;;;;;;;15.44;100.00;102199.31;5012364;28;20041;-59
2023/09/04 00:05:18;;;;;;;8.93;6.47;;;;;;;15.43;100.00;102202.81;5004267;28;20042;-59
2023/09/04 00:07:44;;;;;;;12.75;8.50;;;;;;;15.41;100.00;102201.94;5007723;28;20490;-60
2023/09/04 00:10:10;;;;;;;9.68;7.50;;;;;;;15.35;100.00;102200.22;5006836;28;20092;-59
2023/09/04 00:12:35;;;;;;;9.13;7.55;;;;;;;15.33;100.00;102198.50;5007269;28;20577;-59
2023/09/04 00:15:01;;;;;;;8.82;7.47;;;;;;;15.30;100.00;102199.41;5008746;28;20446;-60
2023/09/04 00:17:26;;;;;;;9.93;8.18;;;;;;;15.27;100.00;102195.94;5007303;28;20476;-59
2023/09/04 00:19:52;;;;;;;9.15;7.80;;;;;;;15.25;100.00;102202.91;5005269;28;20573;-60
2023/09/04 00:22:17;;;;;;;8.45;7.50;;;;;;;15.23;100.00;102205.50;5007309;28;20109;-59
2023/09/04 00:24:42;;;;;;;10.45;6.70;;;;;;;15.22;100.00;102206.38;5010284;28;20044;-59
2023/09/04 00:27:08;;;;;;;10.93;7.78;;;;;;;15.20;100.00;102201.16;5006690;28;20037;-60
2023/09/04 00:29:33;;;;;;;10.57;8.13;;;;;;;15.20;100.00;102200.28;5005612;28;20052;-60
2023/09/04 00:31:58;;;;;;;7.63;6.82;;;;;;;15.16;100.00;102199.47;5010093;28;20116;-60
2023/09/04 00:34:24;;;;;;;10.73;7.10;;;;;;;15.13;100.00;102196.00;5007565;28;20072;-60
2023/09/04 00:36:49;;;;;;;11.57;7.78;;;;;;;15.12;100.00;102195.13;5008440;28;20050;-60
2023/09/04 00:39:17;;;;;;;9.15;7.32;;;;;;;15.09;100.00;102189.94;5005419;28;20108;-60
2023/09/04 00:41:42;;;;;;;9.52;6.57;;;;;;;15.08;100.00;102190.81;5006659;28;20056;-60
2023/09/04 00:44:07;;;;;;;9.40;7.30;;;;;;;15.04;100.00;102185.63;5022460;28;20033;-60
2023/09/04 00:46:33;;;;;;;13.30;8.00;;;;;;;15.02;100.00;102185.63;5015636;28;20042;-60
2023/09/04 00:48:58;;;;;;;9.85;7.32;;;;;;;15.02;100.00;102187.34;5018471;28;20518;-59
2023/09/04 00:51:24;;;;;;;8.38;7.35;;;;;;;15.00;100.00;102181.28;5026037;28;20115;-60
2023/09/04 00:53:49;;;;;;;10.75;7.53;;;;;;;14.97;100.00;102184.78;5019736;28;20489;-59
2023/09/04 00:56:15;;;;;;;11.70;7.90;;;;;;;14.95;100.00;102183.06;5020966;28;20041;-59
2023/09/04 00:58:41;;;;;;;14.50;8.38;;;;;;;14.94;100.00;102174.38;5008804;28;20052;-59
2023/09/04 01:01:06;;;;;;;10.13;7.38;;;;;;;14.92;100.00;102177.88;5006668;28;20037;-59
2023/09/04 01:03:32;;;;;;;8.15;7.20;;;;;;;14.89;100.00;102180.47;5006354;28;20095;-59
2023/09/04 01:05:57;;;;;;;8.60;6.85;;;;;;;14.86;100.00;102177.88;5014059;28;20687;-60
2023/09/04 01:08:25;;;;;;;11.27;7.90;;;;;;;14.83;100.00;102183.09;5016690;28;20048;-59
2023/09/04 01:11:09;;;;;;;11.38;8.13;;;;;;;14.83;100.00;102178.75;5023257;28;20193;-59
2023/09/04 01:13:56;;;;;;;11.52;8.65;;;;;;;14.85;100.00;102174.41;5028035;28;20033;-59
2023/09/04 01:16:23;;;;;;;11.98;8.35;;;;;;;14.81;100.00;102172.66;5019802;28;20046;-59
2023/09/04 01:18:49;;;;;;;9.80;7.07;;;;;;;14.79;100.00;102169.22;5016263;28;20041;-59
2023/09/04 01:21:14;;;;;;;8.48;7.00;;;;;;;14.79;100.00;102158.81;5014286;28;20037;-60
2023/09/04 01:23:40;;;;;;;9.88;7.30;;;;;;;14.78;100.00;102166.63;5015207;28;20068;-60
2023/09/04 01:26:26;;;;;;;9.88;8.27;;;;;;;14.76;100.00;102161.41;5015642;28;20796;-59
2023/09/04 01:28:55;;;;;;;8.45;7.38;;;;;;;14.76;100.00;102163.16;5018365;28;20763;-59
2023/09/04 01:31:26;;;;;;;10.20;7.70;;;;;;;14.73;100.00;102158.81;5015596;28;20813;-59
2023/09/04 01:34:08;;;;;;;10.77;7.80;;;;;;;14.70;100.00;102161.44;5006869;28;20044;-60
2023/09/04 01:36:35;;;;;;;9.65;7.25;;;;;;;14.66;100.00;102152.78;5012581;28;20029;-59
2023/09/04 01:39:02;;;;;;;8.60;6.68;;;;;;;14.64;100.00;102154.53;5014459;28;20029;-59
2023/09/04 01:41:27;;;;;;;9.45;7.28;;;;;;;14.61;100.00;102146.72;5012061;28;20033;-59
2023/09/04 01:43:53;;;;;;;9.65;6.57;;;;;;;14.60;100.00;102151.94;5006936;28;20099;-60
2023/09/04 01:46:19;;;;;;;10.27;8.10;;;;;;;14.58;100.00;102151.94;5018739;28;20038;-59
2023/09/04 01:48:45;;;;;;;9.02;6.72;;;;;;;14.57;100.00;102147.59;5013371;28;20494;-59
2023/09/04 01:51:10;;;;;;;9.07;7.40;;;;;;;14.57;100.00;102151.97;5030641;28;20102;-59
2023/09/04 01:53:36;;;;;;;12.93;8.13;;;;;;;14.56;100.00;102145.00;5016353;28;20499;-59
2023/09/04 01:56:01;;;;;;;8.90;7.38;;;;;;;14.55;100.00;102148.47;5014834;28;20070;-60
2023/09/04 01:58:28;;;;;;;9.25;7.25;;;;;;;14.53;100.00;102145.00;5019456;28;20044;-59
2023/09/04 02:00:53;;;;;;;9.93;7.32;;;;;;;14.51;100.00;102142.41;5015769;28;20037;-59
2023/09/04 02:03:18;;;;;;;8.00;5.80;;;;;;;14.49;100.00;102143.28;5016619;28;20056;-59
2023/09/04 02:05:44;;;;;;;9.20;6.22;;;;;;;14.46;100.00;102146.75;5014829;28;20034;-59
2023/09/04 02:08:09;;;;;;;7.93;6.75;;;;;;;14.44;100.00;102151.09;5011797;28;20060;-59
2023/09/04 02:10:35;;;;;;;7.47;6.28;;;;;;;14.43;100.00;102148.50;5030039;28;20033;-59
2023/09/04 02:13:01;;;;;;;8.77;6.80;;;;;;;14.42;100.00;102147.66;5023789;28;20040;-59
2023/09/04 02:15:27;;;;;;;13.55;7.60;;;;;;;14.40;100.00;102151.09;5028492;28;20098;-60
2023/09/04 02:17:53;;;;;;;11.23;8.32;;;;;;;14.37;100.00;102140.66;5024277;28;20030;-59
2023/09/04 02:20:18;;;;;;;10.75;7.43;;;;;;;14.34;100.00;102135.47;5019452;28;20053;-59
2023/09/04 02:22:44;;;;;;;9.18;7.28;;;;;;;14.32;100.00;102129.41;5013796;28;20037;-59
2023/09/04 02:25:09;;;;;;;10.50;7.18;;;;;;;14.30;100.00;102131.16;5021505;28;20116;-59
2023/09/04 02:27:35;;;;;;;9.52;6.50;;;;;;;14.28;100.00;102130.28;5016956;28;20040;-59
2023/09/04 02:30:03;;;;;;;7.10;5.88;;;;;;;14.25;100.00;102136.34;5026197;28;20037;-59
2023/09/04 02:32:28;;;;;;;10.27;7.20;;;;;;;14.27;100.00;102138.97;5008199;28;20143;-59
2023/09/04 02:34:54;;;;;;;10.45;7.72;;;;;;;14.25;100.00;102140.69;5017183;28;20091;-59
2023/09/04 02:37:19;;;;;;;8.40;6.63;;;;;;;14.22;100.00;102138.97;5016223;28;20718;-59
2023/09/04 02:39:44;;;;;;;8.95;6.30;;;;;;;14.20;100.00;102145.03;5022164;28;20087;-59
2023/09/04 02:42:10;;;;;;;10.15;6.63;;;;;;;14.18;100.00;102146.78;5025605;28;20132;-59
2023/09/04 02:44:35;;;;;;;8.48;6.93;;;;;;;14.17;100.00;102145.91;5017332;28;20064;-59
2023/09/04 02:47:00;;;;;;;12.50;7.28;;;;;;;14.16;100.00;102141.56;5012282;28;20038;-60
2023/09/04 02:49:26;;;;;;;9.75;7.05;;;;;;;14.13;100.00;102141.56;5017994;28;20087;-59
2023/09/04 02:51:51;;;;;;;11.48;6.88;;;;;;;14.11;100.00;102138.13;5023488;28;20041;-59
2023/09/04 02:54:16;;;;;;;8.35;6.93;;;;;;;14.10;100.00;102132.03;5029260;28;20124;-59
2023/09/04 02:56:42;;;;;;;10.55;7.60;;;;;;;14.09;100.00;102137.25;5012853;28;20073;-59
2023/09/04 02:59:07;;;;;;;8.13;7.07;;;;;;;14.09;100.00;102132.94;5020916;28;20137;-60
2023/09/04 03:01:34;;;;;;;7.72;6.60;;;;;;;14.08;100.00;102135.53;5023819;28;20044;-60
2023/09/04 03:03:59;;;;;;;8.27;6.47;;;;;;;14.06;100.00;102135.53;5002783;28;20525;-60
2023/09/04 03:06:25;;;;;;;9.65;6.75;;;;;;;14.04;100.00;102144.19;5009478;28;20025;-60
2023/09/04 03:08:50;;;;;;;7.75;6.25;;;;;;;14.02;100.00;102143.31;5014714;28;20042;-60
2023/09/04 03:11:15;;;;;;;8.25;6.57;;;;;;;14.00;100.00;102142.47;5022691;28;20053;-65
2023/09/04 03:13:41;;;;;;;9.00;6.20;;;;;;;13.96;100.00;102152.00;5034151;28;20033;-65
2023/09/04 03:16:07;;;;;;;10.23;7.35;;;;;;;13.93;100.00;102164.13;5018921;28;20806;-65
2023/09/04 03:18:33;;;;;;;10.93;7.30;;;;;;;13.89;100.00;102154.63;5013715;28;20033;-64
2023/09/04 03:20:59;;;;;;;9.57;6.75;;;;;;;13.87;100.00;102165.00;5012302;28;20396;-65
2023/09/04 03:23:25;;;;;;;9.38;7.10;;;;;;;13.84;100.00;102152.00;5015847;28;20033;-66
2023/09/04 03:25:50;;;;;;;7.15;6.45;;;;;;;13.85;100.00;102160.66;5009565;28;20144;-65
2023/09/04 03:28:15;;;;;;;8.93;7.30;;;;;;;13.85;100.00;102155.47;5011864;28;20072;-65
2023/09/04 03:30:41;;;;;;;12.00;6.60;;;;;;;13.83;100.00;102162.41;5017871;28;20030;-65
2023/09/04 03:33:07;;;;;;;8.93;7.40;;;;;;;13.82;100.00;102161.53;5011127;28;20022;-65
2023/09/04 03:35:32;;;;;;;9.65;6.60;;;;;;;13.80;100.00;102158.03;5017686;28;20143;-66
2023/09/04 03:37:58;;;;;;;10.20;7.72;;;;;;;13.80;100.00;102162.41;5024660;28;20121;-66
2023/09/04 03:40:25;;;;;;;7.93;7.07;;;;;;;13.78;100.00;102153.72;5019968;28;20048;-66
2023/09/04 03:42:51;;;;;;;13.88;7.78;;;;;;;13.78;100.00;102151.13;5011954;28;20196;-65
2023/09/04 03:45:16;;;;;;;8.82;6.70;;;;;;;13.76;100.00;102152.84;4994695;28;20052;-65
2023/09/04 03:47:44;;;;;;;7.80;6.53;;;;;;;13.74;100.00;102145.03;5010977;28;20033;-66
2023/09/04 03:50:13;;;;;;;8.80;6.70;;;;;;;13.73;100.00;102145.06;5005366;28;20414;-66
2023/09/04 03:52:39;;;;;;;8.82;7.32;;;;;;;13.72;100.00;102143.31;5021571;28;20498;-65
2023/09/04 03:55:08;;;;;;;8.30;6.75;;;;;;;13.70;100.00;102145.94;5028172;28;20128;-65
2023/09/04 03:57:36;;;;;;;8.55;6.38;;;;;;;13.69;100.00;102136.38;5017028;28;20292;-65
2023/09/04 04:00:02;;;;;;;11.63;6.93;;;;;;;13.68;100.00;102136.41;5015668;28;20537;-65
2023/09/04 04:02:27;;;;;;;11.38;7.20;;;;;;;13.67;100.00;102132.06;5011853;28;20052;-66
2023/09/04 04:04:53;;;;;;;7.00;6.07;;;;;;;13.66;100.00;102138.97;5016555;28;20061;-65
2023/09/04 04:07:18;;;;;;;10.93;6.95;;;;;;;13.65;100.00;102136.41;5007126;28;20567;-65
2023/09/04 04:09:44;;;;;;;10.85;6.60;;;;;;;13.62;100.00;102139.00;5016150;28;20045;-65
2023/09/04 04:12:10;;;;;;;7.50;5.65;;;;;;;13.58;100.00;102138.13;5014629;28;20147;-66
2023/09/04 04:14:36;;;;;;;8.32;7.00;;;;;;;13.55;100.00;102139.00;5013283;28;20045;-65
2023/09/04 04:17:01;;;;;;;7.35;6.38;;;;;;;13.54;100.00;102136.38;5012771;28;20029;-65
2023/09/04 04:19:28;;;;;;;7.07;5.97;;;;;;;13.51;100.00;102139.84;5011210;28;20025;-65
2023/09/04 04:21:53;;;;;;;7.53;6.47;;;;;;;13.48;100.00;102134.63;5025363;28;20116;-65
2023/09/04 04:24:19;;;;;;;11.90;7.60;;;;;;;13.46;100.00;102141.56;5009468;28;20039;-66
2023/09/04 04:26:45;;;;;;;11.68;7.07;;;;;;;13.45;100.00;102137.22;5015020;28;20064;-65
2023/09/04 04:29:11;;;;;;;9.95;6.93;;;;;;;13.45;100.00;102138.94;5014539;28;20073;-65
2023/09/04 04:31:36;;;;;;;10.73;6.65;;;;;;;13.45;100.00;102144.16;5014071;28;20029;-65
2023/09/04 04:34:02;;;;;;;9.30;6.60;;;;;;;13.44;100.00;102137.25;5006046;28;20057;-65
2023/09/04 04:36:27;;;;;;;9.35;6.47;;;;;;;13.43;100.00;102144.16;5014707;28;20032;-65
2023/09/04 04:38:53;;;;;;;8.73;6.60;;;;;;;13.44;100.00;102143.28;5020539;28;20034;-66
2023/09/04 04:41:18;;;;;;;7.80;5.78;;;;;;;13.45;100.00;102133.75;5021353;28;20030;-65
2023/09/04 04:43:44;;;;;;;10.32;6.53;;;;;;;13.46;100.00;102141.56;5015248;28;20083;-65
2023/09/04 04:46:12;;;;;;;8.05;6.30;;;;;;;13.46;100.00;102141.56;5008554;28;20093;-65
2023/09/04 04:48:38;;;;;;;9.30;7.82;;;;;;;13.47;100.00;102147.63;5000082;28;20052;-64
2023/09/04 04:51:03;;;;;;;10.48;7.63;;;;;;;13.49;100.00;102138.09;5015237;28;20029;-62
2023/09/04 04:53:29;;;;;;;14.25;8.45;;;;;;;13.49;100.00;102138.09;5009528;28;20129;-62
2023/09/04 04:55:55;;;;;;;10.30;6.85;;;;;;;13.46;100.00;102149.38;5026340;28;20152;-63
2023/09/04 04:58:21;;;;;;;13.75;7.57;;;;;;;13.44;100.00;102143.28;5009316;28;20038;-62
2023/09/04 05:00:46;;;;;;;7.22;6.40;;;;;;;13.47;100.00;102156.28;5005480;28;20465;-63
2023/09/04 05:03:12;;;;;;;9.40;6.63;;;;;;;13.47;100.00;102158.03;5005479;28;20486;-62
2023/09/04 05:05:43;;;;;;;7.93;6.85;;;;;;;13.49;100.00;102162.34;5007225;28;20103;-63
2023/09/04 05:08:08;;;;;;;10.75;6.95;;;;;;;13.49;100.00;102167.56;5006405;28;20041;-62
2023/09/04 05:10:34;;;;;;;9.40;6.82;;;;;;;13.51;100.00;102168.41;5006611;28;20105;-62
2023/09/04 05:12:59;;;;;;;10.20;7.28;;;;;;;13.53;100.00;102165.84;4995064;28;20076;-62
2023/09/04 05:15:24;;;;;;;7.93;6.93;;;;;;;13.57;100.00;102167.56;5012619;28;20041;-62
2023/09/04 05:17:50;;;;;;;10.30;6.70;;;;;;;13.60;100.00;102157.16;5019335;28;20491;-62
2023/09/04 05:20:15;;;;;;;10.00;7.15;;;;;;;13.63;100.00;102158.91;5007147;28;20069;-62
2023/09/04 05:22:40;;;;;;;12.32;7.22;;;;;;;13.67;100.00;102158.03;5015777;28;20141;-62
2023/09/04 05:25:07;;;;;;;9.88;7.05;;;;;;;13.70;100.00;102171.03;5006551;28;20396;-63
2023/09/04 05:27:33;;;;;;;12.02;6.22;;;;;;;13.72;100.00;102167.56;5011128;28;20057;-62
2023/09/04 05:29:58;;;;;;;6.78;6.07;;;;;;;13.74;100.00;102168.44;5015297;28;20033;-63
2023/09/04 05:32:23;;;;;;;10.30;7.00;;;;;;;13.76;100.00;102164.13;5008591;28;20057;-63
2023/09/04 05:34:52;;;;;;;11.38;7.10;;;;;;;13.80;100.00;102172.78;5015301;28;20042;-63
2023/09/04 05:37:17;;;;;;;11.88;7.68;;;;;;;13.89;100.00;102178.00;5013382;28;20127;-62
2023/09/04 05:39:43;;;;;;;11.32;7.60;;;;;;;13.96;100.00;102170.19;5011816;28;20174;-62
2023/09/04 05:42:08;;;;;;;10.13;6.72;;;;;;;14.04;100.00;102172.78;5014034;28;20045;-63
2023/09/04 05:44:35;;;;;;;11.80;7.18;;;;;;;14.08;100.00;102164.13;5012847;28;20129;-62
2023/09/04 05:47:00;;;;;;;10.77;6.72;;;;;;;14.13;100.00;102169.34;5012825;28;20121;-62
2023/09/04 05:49:26;;;;;;;7.80;6.00;;;;;;;14.20;100.00;102168.44;5016370;28;20048;-62
2023/09/04 05:51:52;;;;;;;7.45;5.70;;;;;;;14.23;100.00;102164.13;5016205;28;20081;-63
2023/09/04 05:54:18;;;;;;;7.15;6.07;;;;;;;14.29;100.00;102158.03;5015010;28;21030;-62
2023/09/04 05:56:43;;;;;;;8.18;6.68;;;;;;;14.36;100.00;102146.75;5008333;28;20034;-62
2023/09/04 05:59:09;;;;;;;10.18;7.22;;;;;;;14.44;100.00;102158.03;5012848;28;21062;-62
2023/09/04 06:01:34;;;;;;;11.70;6.65;;;;;;;14.53;100.00;102152.81;5008669;28;20041;-62
2023/09/04 06:03:59;;;;;;;11.65;7.50;;;;;;;14.58;100.00;102149.34;5006679;28;20038;-62
2023/09/04 06:06:25;;;;;;;10.93;6.22;;;;;;;14.66;100.00;102150.16;5005990;28;20257;-62
2023/09/04 06:08:50;;;;;;;8.13;6.25;;;;;;;14.73;100.00;102144.94;5006364;28;20045;-63
2023/09/04 06:11:16;;;;;;;10.73;6.35;;;;;;;14.75;100.00;102145.81;5012978;28;20041;-62
2023/09/04 06:13:41;;;;;;;7.95;6.15;;;;;;;14.81;100.00;102144.03;5006795;28;20057;-62
2023/09/04 06:16:06;;;;;;;12.25;6.85;;;;;;;14.88;100.00;102150.09;5012347;28;20042;-62
2023/09/04 06:18:32;;;;;;;8.65;5.78;;;;;;;14.94;100.00;102150.06;5010740;28;20570;-62
2023/09/04 06:20:57;;;;;;;7.60;5.65;;;;;;;14.98;100.00;102154.41;5014117;28;20021;-62
2023/09/04 06:23:23;;;;;;;6.85;5.82;;;;;;;15.01;100.00;102154.41;5007661;28;20052;-62
2023/09/04 06:25:49;;;;;;;6.50;5.45;;;;;;;15.05;100.00;102156.97;5007328;28;20568;-63
2023/09/04 06:28:15;;;;;;;11.32;5.78;;;;;;;15.11;100.00;102153.47;5012589;28;20048;-62
2023/09/04 06:30:40;;;;;;;10.55;5.35;;;;;;;15.14;100.00;102145.63;5009426;28;20056;-62
2023/09/04 06:33:06;;;;;;;11.60;5.53;;;;;;;15.21;100.00;102144.72;5008141;28;20025;-62
2023/09/04 06:35:32;;;;;;;8.48;4.93;;;;;;;15.26;100.00;102140.34;5009932;28;20195;-62
2023/09/04 06:37:58;;;;;;;9.10;5.68;;;;;;;15.34;100.00;102140.31;5002456;28;20712;-62
2023/09/04 06:40:23;;;;;;;6.05;4.85;;;;;;;15.40;99.91;102135.94;5005025;28;20268;-62
2023/09/04 06:42:49;;;;;;;8.10;5.20;;;;;;;15.44;99.26;102132.44;5007038;28;20435;-62
2023/09/04 06:45:15;;;;;;;6.72;4.95;;;;;;;15.53;98.77;102131.50;5007128;28;20060;-62
2023/09/04 06:47:41;;;;;;;8.25;5.50;;;;;;;15.63;98.92;102134.09;5003213;28;20044;-62
2023/09/04 06:50:08;;;;;;;7.13;4.90;;;;;;;15.71;98.34;102128.78;5007883;28;20115;-63
2023/09/04 06:52:33;;;;;;;6.38;4.93;;;;;;;15.79;97.87;102123.53;5006271;28;20510;-63
2023/09/04 06:54:59;;;;;;;7.53;5.00;;;;;;;15.83;98.76;102128.69;5008372;28;20049;-63
2023/09/04 06:57:24;;;;;;;7.30;5.00;;;;;;;15.91;98.18;102121.66;5011472;28;20520;-63
2023/09/04 06:59:50;;;;;;;6.18;4.75;;;;;;;15.99;98.34;102125.09;5007333;28;20060;-63
2023/09/04 07:02:15;;;;;;;7.70;4.40;;;;;;;16.07;97.83;102122.41;5008473;28;20188;-63
2023/09/04 07:04:41;;;;;;;6.55;4.07;;;;;;;16.17;97.86;102121.44;5006470;28;20388;-63
2023/09/04 07:07:06;;;;;;;5.95;4.07;;;;;;;16.26;97.02;102118.75;5005124;28;20064;-63
2023/09/04 07:09:32;;;;;;;5.32;3.88;;;;;;;16.32;97.10;102119.53;5015650;28;20120;-62
2023/09/04 07:11:57;;;;;;;5.00;3.78;;;;;;;16.44;94.77;102110.72;5006876;28;20029;-63
2023/09/04 07:14:22;;;;;;;6.22;4.32;;;;;;;16.50;94.88;102110.66;5009910;28;20043;-63
2023/09/04 07:16:48;;;;;;;6.90;3.72;;;;;;;16.58;92.89;102106.22;5004498;28;20092;-63
2023/09/04 07:19:13;;;;;;;4.50;3.70;;;;;;;16.67;92.66;102102.63;5014259;28;20060;-62
2023/09/04 07:21:40;;;;;;;5.68;3.60;;;;;;;16.76;92.64;102102.50;5005324;28;20033;-62
2023/09/04 07:24:06;;;;;;;6.40;3.70;;;;;;;16.86;92.63;102101.53;5010291;28;20036;-65
2023/09/04 07:26:31;;;;;;;5.40;4.05;;;;;;;16.91;93.76;102104.97;5014826;28;20030;-65
2023/09/04 07:28:57;;;;;;;6.35;3.60;;;;;;;17.00;90.86;102097.00;5010615;28;20136;-64
2023/09/04 07:31:22;;;;;;;6.53;3.92;;;;;;;17.16;90.27;102101.13;5008322;28;20046;-64
2023/09/04 07:33:48;;;;;;;4.05;3.53;;;;;;;17.23;91.60;102104.50;5007821;28;20049;-64
2023/09/04 07:36:14;;;;;;;5.35;3.50;;;;;;;17.30;91.28;102101.81;5008892;28;20427;-64
2023/09/04 07:38:40;;;;;;;5.65;3.38;;;;;;;17.40;89.76;102113.81;5006712;28;20804;-64
2023/09/04 07:41:06;;;;;;;5.32;3.35;;;;;;;17.50;88.37;102103.22;5006516;28;20736;-65
2023/09/04 07:43:32;;;;;;;5.40;3.83;;;;;;;17.60;87.41;102103.06;5000203;28;20050;-65
2023/09/04 07:45:58;;;;;;;4.47;3.20;;;;;;;17.64;88.56;102109.97;5008484;28;20048;-65
2023/09/04 07:48:24;;;;;;;4.03;3.22;;;;;;;17.67;89.20;102112.53;5012281;28;20033;-65
2023/09/04 07:50:52;;;;;;;5.28;3.00;;;;;;;17.73;89.60;102111.56;5009803;28;20121;-65
2023/09/04 07:53:17;;;;;;;6.63;3.30;;;;;;;17.82;89.54;102114.91;5006864;28;20710;-65
2023/09/04 07:55:42;;;;;;;6.20;3.67;;;;;;;17.96;87.75;102114.69;5007954;28;20042;-65
2023/09/04 07:58:08;;;;;;;7.00;3.67;;;;;;;18.06;86.68;102103.19;5009456;28;20888;-65
2023/09/04 08:00:34;;;;;;;6.07;3.58;;;;;;;18.22;85.74;102096.78;5006336;28;20038;-64
2023/09/04 08:02:59;;;;;;;5.57;3.08;;;;;;;18.32;84.32;102089.59;5006607;28;20026;-65
2023/09/04 08:05:25;;;;;;;5.50;3.00;;;;;;;18.48;82.85;102083.19;5010576;28;20048;-65
2023/09/04 08:07:50;;;;;;;4.90;3.28;;;;;;;18.57;82.15;102082.13;5008947;28;20065;-65
2023/09/04 08:10:15;;;;;;;5.53;4.05;;;;;;;18.62;83.47;102090.75;5007494;28;20135;-64
2023/09/04 08:12:41;;;;;;;5.43;3.28;;;;;;;18.65;82.02;102094.19;5005409;28;20508;-64
2023/09/04 08:15:08;;;;;;;8.10;4.05;;;;;;;18.74;81.49;102083.50;5002134;28;20721;-65
2023/09/04 08:17:34;;;;;;;4.20;2.90;;;;;;;18.83;81.02;102090.31;5003101;28;20045;-65
2023/09/04 08:20:00;;;;;;;6.68;3.15;;;;;;;18.95;81.57;102083.09;5006928;28;21239;-64
2023/09/04 08:22:26;;;;;;;4.95;2.80;;;;;;;19.01;80.58;102082.09;5008363;28;20406;-64
2023/09/04 08:24:53;;;;;;;3.90;3.05;;;;;;;19.02;81.90;102099.53;5006223;28;20042;-64
2023/09/04 08:27:19;;;;;;;4.00;3.10;;;;;;;19.09;81.78;102103.72;5005367;28;20041;-64
2023/09/04 08:29:44;;;;;;;5.55;2.80;;;;;;;19.24;80.33;102087.66;5006102;28;20029;-64
2023/09/04 08:32:09;;;;;;;3.35;2.65;;;;;;;19.28;80.28;102094.56;5003257;28;20549;-65
2023/09/04 08:34:35;;;;;;;5.75;2.67;;;;;;;19.37;78.70;102076.00;5007865;28;20108;-64
2023/09/04 08:37:00;;;;;;;4.75;2.92;;;;;;;19.52;79.18;102087.88;5009098;28;20456;-64
2023/09/04 08:39:25;;;;;;;4.50;3.25;;;;;;;19.62;79.17;102084.16;5012125;28;20021;-62
2023/09/04 08:41:52;;;;;;;7.63;3.10;;;;;;;19.65;79.84;102085.84;5005887;28;20083;-64
2023/09/04 08:44:18;;;;;;;4.35;2.72;;;;;;;19.73;79.91;102089.13;5001966;28;20037;-65
2023/09/04 08:46:46;;;;;;;6.57;3.08;;;;;;;19.79;80.30;102095.13;4999933;28;20052;-64
2023/09/04 08:49:11;;;;;;;4.22;3.08;;;;;;;19.86;81.02;102099.28;5012781;28;20053;-65
2023/09/04 08:51:37;;;;;;;7.18;3.03;;;;;;;19.97;79.61;102086.78;5008327;28;20034;-64
2023/09/04 08:54:04;;;;;;;4.80;3.00;;;;;;;20.10;77.64;102063.66;5005468;28;22004;-64
2023/09/04 08:56:30;;;;;;;5.68;3.20;;;;;;;20.17;77.16;102060.84;4999883;28;20117;-65
2023/09/04 08:58:55;;;;;;;5.55;2.88;;;;;;;20.28;76.89;102057.91;5003496;28;20061;-64
2023/09/04 09:01:26;;;;;;;3.95;2.78;;;;;;;20.41;76.86;102061.06;5008243;28;20506;-64
2023/09/04 09:03:52;;;;;;;6.65;2.88;;;;;;;20.40;77.28;102075.94;4999394;28;20041;-64
2023/09/04 09:06:17;;;;;;;6.15;2.67;;;;;;;20.60;76.60;102073.59;5007847;28;20033;-65
2023/09/04 09:08:45;;;;;;;3.72;2.97;;;;;;;20.64;76.75;102064.75;5010043;28;20111;-65
2023/09/04 09:11:12;;;;;;;5.70;3.42;;;;;;;20.72;74.69;102036.50;5012840;28;20042;-65
2023/09/04 09:13:39;;;;;;;6.53;3.13;;;;;;;20.86;76.00;102058.88;5015049;28;20029;-64
2023/09/04 09:16:04;;;;;;;5.13;2.67;;;;;;;20.97;73.69;102028.72;5007254;28;20707;-60
2023/09/04 09:18:38;;;;;;;4.75;2.72;;;;;;;20.99;73.89;102026.03;5014524;28;20110;-60
2023/09/04 09:21:23;;;;;;;4.87;3.10;;;;;;;21.04;70.93;101990.84;5012968;28;20022;-61
2023/09/04 09:24:18;;;;;;;4.95;2.95;;;;;;;21.14;72.46;102021.16;5003895;28;20291;-59
2023/09/04 09:26:48;;;;;;;6.65;3.40;;;;;;;21.32;71.91;102024.97;5011021;28;20037;-60
2023/09/04 09:29:14;;;;;;;5.10;3.05;;;;;;;21.38;71.20;102019.50;5005298;28;20073;-60
2023/09/04 09:31:42;;;;;;;6.43;3.08;;;;;;;21.50;70.62;102018.22;5003586;28;20049;-59
2023/09/04 09:34:09;;;;;;;4.55;2.80;;;;;;;21.61;71.37;102024.03;5003128;28;20552;-60
2023/09/04 09:36:34;;;;;;;4.10;2.90;;;;;;;21.64;69.73;101995.81;5006020;28;20129;-60
2023/09/04 09:39:00;;;;;;;4.25;2.70;;;;;;;21.70;69.60;101998.25;5006232;28;20025;-60
2023/09/04 09:41:28;;;;;;;4.07;2.55;;;;;;;21.73;69.22;101994.66;5010861;28;20123;-60
2023/09/04 09:43:53;;;;;;;4.13;2.53;;;;;;;21.76;68.28;101984.00;5008962;28;20041;-60
2023/09/04 09:46:20;;;;;;;4.60;2.65;;;;;;;21.83;68.70;101990.78;5009472;28;20041;-60
2023/09/04 09:48:46;;;;;;;4.00;3.17;;;;;;;21.90;68.23;101987.03;5004718;28;20120;-59
2023/09/04 09:51:13;;;;;;;5.85;2.88;;;;;;;21.99;69.55;102004.28;5010637;28;20026;-60
2023/09/04 09:53:46;;;;;;;8.90;2.90;;;;;;;22.04;69.06;101979.50;5004108;28;20045;-60
2023/09/04 09:56:13;;;;;;;3.72;2.50;;;;;;;22.19;69.18;101986.84;5015426;28;20044;-60
2023/09/04 09:58:41;;;;;;;3.55;2.75;;;;;;;22.15;68.08;101972.03;5004608;28;20391;-60
2023/09/04 10:01:06;;;;;;;4.28;3.20;;;;;;;22.22;69.00;101985.84;5013396;28;20514;-60
2023/09/04 10:03:33;;;;;;;6.20;2.78;;;;;;;22.44;68.90;101980.69;5000974;28;20030;-60
2023/09/04 10:06:04;;;;;;;3.40;2.80;;;;;;;22.44;66.90;101942.03;5010968;28;20061;-60
2023/09/04 10:08:33;;;;;;;4.25;2.63;;;;;;;22.60;67.98;101961.56;5000858;28;20640;-60
2023/09/04 10:11:01;;;;;;;6.30;3.13;;;;;;;22.69;66.96;101941.91;5013872;28;20041;-59
2023/09/04 10:13:30;;;;;;;4.55;2.83;;;;;;;22.73;65.47;101918.00;5004515;28;20048;-60
2023/09/04 10:16:01;;;;;;;7.18;2.90;;;;;;;22.72;65.99;101928.59;5011591;28;20052;-60
2023/09/04 10:18:29;;;;;;;3.70;2.40;;;;;;;22.86;65.73;101929.75;5015223;28;20030;-61
2023/09/04 10:20:59;;;;;;;4.75;3.03;;;;;;;22.90;64.93;101926.06;5023304;28;20040;-59
2023/09/04 10:23:32;;;;;;;3.58;2.67;;;;;;;22.98;62.84;101886.19;5012580;28;20098;-60
2023/09/04 10:26:24;;;;;;;4.70;2.72;;;;;;;23.11;65.18;101932.25;5008299;28;20062;-60
2023/09/04 10:29:05;;;;;;;3.70;2.40;;;;;;;23.17;64.81;101916.16;5014687;28;20069;-60
2023/09/04 10:31:34;;;;;;;3.15;2.13;;;;;;;23.27;63.57;101904.31;5007732;28;20049;-60
2023/09/04 10:34:00;;;;;;;3.28;2.58;;;;;;;23.31;61.37;101870.75;5004782;28;20219;-60
2023/09/04 10:36:28;;;;;;;3.05;2.30;;;;;;;23.38;60.60;101848.44;5001442;28;20030;-60
2023/09/04 10:38:54;;;;;;;3.45;2.17;;;;;;;23.49;60.65;101854.09;5005480;28;20069;-59
2023/09/04 10:41:20;;;;;;;7.20;2.50;;;;;;;23.66;59.85;101846.28;5023258;28;20045;-59
2023/09/04 10:43:45;;;;;;;5.82;2.08;;;;;;;23.81;57.01;101798.03;5005557;28;20033;-59
2023/09/04 10:46:12;;;;;;;3.30;1.90;;;;;;;23.86;55.08;101774.94;5005094;28;20084;-59
2023/09/04 10:48:42;;;;;;;3.42;2.22;;;;;;;23.98;54.66;101778.81;5003352;28;20029;-59
2023/09/04 10:51:33;;;;;;;3.67;2.05;;;;;;;24.12;54.56;101768.44;5006328;28;20649;-59
2023/09/04 10:54:01;;;;;;;3.60;2.47;;;;;;;24.14;54.78;101792.97;5001363;28;20049;-60
2023/09/04 10:56:26;;;;;;;3.72;2.17;;;;;;;24.23;53.97;101778.47;5006581;28;20577;-60
2023/09/04 10:59:10;;;;;;;3.40;1.75;;;;;;;24.33;53.72;101769.16;5003936;28;20042;-59
2023/09/04 11:01:38;;;;;;;2.75;1.95;;;;;;;24.30;51.29;101733.19;5006417;28;20045;-59
2023/09/04 11:04:08;;;;;;;2.70;1.92;;;;;;;24.28;52.17;101753.56;5010402;28;20096;-59
2023/09/04 11:06:38;;;;;;;2.63;2.10;;;;;;;24.35;51.74;101736.44;5022520;28;20033;-59
2023/09/04 11:09:04;;;;;;;4.97;2.10;;;;;;;24.41;53.48;101781.06;5006345;28;20021;-59
2023/09/04 11:11:30;;;;;;;4.03;1.60;;;;;;;24.50;52.38;101748.88;5005646;28;20048;-59
2023/09/04 11:14:05;;;;;;;2.50;1.85;;;;;;;24.54;51.26;101741.66;5002964;28;20065;-59
2023/09/04 11:16:37;;;;;;;4.13;1.60;;;;;;;24.62;52.41;101755.34;5009145;28;20084;-59